sensor_id;sensor_type;location;lat;lon;timestamp;pressure;altitude;pressure_sealevel;temperature;humidity
41624;BME280;27319;50.306;18.926;2022-09-13T00:01:50;98205.16;;;11.62;88.09
41624;BME280;27319;50.306;18.926;2022-09-13T00:04:51;98200.94;;;11.68;88.27
41624;BME280;27319;50.306;18.926;2022-09-13T00:07:51;98207.50;;;11.57;87.39
41624;BME280;27319;50.306;18.926;2022-09-13T00:10:52;98194.25;;;11.56;88.07
41624;BME280;27319;50.306;18.926;2022-09-13T00:13:54;98191.22;;;11.51;87.26
41624;BME280;27319;50.306;18.926;2022-09-13T00:16:55;98188.22;;;11.54;87.63
41624;BME280;27319;50.306;18.926;2022-09-13T00:19:56;98189.22;;;11.53;87.50
41624;BME280;27319;50.306;18.926;2022-09-13T00:22:57;98183.50;;;11.56;87.75
41624;BME280;27319;50.306;18.926;2022-09-13T00:26:10;98177.47;;;11.54;87.99
41624;BME280;27319;50.306;18.926;2022-09-13T00:29:11;98184.19;;;11.50;88.47
41624;BME280;27319;50.306;18.926;2022-09-13T00:32:12;98184.41;;;11.40;88.75
41624;BME280;27319;50.306;18.926;2022-09-13T00:35:14;98191.94;;;11.45;87.74
41624;BME280;27319;50.306;18.926;2022-09-13T00:38:14;98178.34;;;11.46;88.19
41624;BME280;27319;50.306;18.926;2022-09-13T00:41:17;98166.94;;;11.36;86.96
41624;BME280;27319;50.306;18.926;2022-09-13T00:44:57;98173.78;;;11.47;87.46
41624;BME280;27319;50.306;18.926;2022-09-13T00:48:00;98176.88;;;11.36;86.78
41624;BME280;27319;50.306;18.926;2022-09-13T00:51:05;98182.63;;;11.25;86.51
41624;BME280;27319;50.306;18.926;2022-09-13T00:54:08;98168.97;;;10.96;87.79
41624;BME280;27319;50.306;18.926;2022-09-13T00:57:09;98173.94;;;11.15;88.01
41624;BME280;27319;50.306;18.926;2022-09-13T01:00:14;98159.72;;;10.90;87.44
41624;BME280;27319;50.306;18.926;2022-09-13T01:03:18;98168.50;;;11.23;86.91
41624;BME280;27319;50.306;18.926;2022-09-13T01:06:23;98158.34;;;11.10;87.50
41624;BME280;27319;50.306;18.926;2022-09-13T01:09:29;98174.56;;;11.17;86.56
41624;BME280;27319;50.306;18.926;2022-09-13T01:13:05;98157.84;;;10.99;86.39
41624;BME280;27319;50.306;18.926;2022-09-13T01:16:14;98161.88;;;10.95;87.10
41624;BME280;27319;50.306;18.926;2022-09-13T01:19:16;98169.56;;;11.14;87.54
41624;BME280;27319;50.306;18.926;2022-09-13T01:25:43;98168.59;;;10.99;87.57
41624;BME280;27319;50.306;18.926;2022-09-13T01:31:53;98151.16;;;10.95;87.10
41624;BME280;27319;50.306;18.926;2022-09-13T01:42:27;98161.34;;;11.07;87.21
41624;BME280;27319;50.306;18.926;2022-09-13T01:45:23;98163.81;;;10.63;86.67
41624;BME280;27319;50.306;18.926;2022-09-13T01:52:04;98156.38;;;10.88;88.34
41624;BME280;27319;50.306;18.926;2022-09-13T01:58:40;98144.09;;;10.94;86.94
41624;BME280;27319;50.306;18.926;2022-09-13T02:02:28;98129.06;;;10.85;87.54
41624;BME280;27319;50.306;18.926;2022-09-13T02:08:40;98113.09;;;10.83;87.06
41624;BME280;27319;50.306;18.926;2022-09-13T02:11:46;98110.94;;;10.79;87.70
41624;BME280;27319;50.306;18.926;2022-09-13T02:15:11;98127.81;;;10.95;88.18
41624;BME280;27319;50.306;18.926;2022-09-13T02:18:19;98119.03;;;10.55;87.30
41624;BME280;27319;50.306;18.926;2022-09-13T02:21:25;98118.00;;;10.72;88.28
41624;BME280;27319;50.306;18.926;2022-09-13T02:24:31;98113.28;;;10.82;88.56
41624;BME280;27319;50.306;18.926;2022-09-13T02:27:34;98109.13;;;10.72;87.22
41624;BME280;27319;50.306;18.926;2022-09-13T02:30:40;98094.38;;;10.52;87.19
41624;BME280;27319;50.306;18.926;2022-09-13T02:33:56;98108.25;;;10.79;87.48
41624;BME280;27319;50.306;18.926;2022-09-13T02:37:00;98106.75;;;10.77;87.29
41624;BME280;27319;50.306;18.926;2022-09-13T02:40:06;98085.19;;;10.46;88.07
41624;BME280;27319;50.306;18.926;2022-09-13T02:43:13;98090.22;;;10.41;89.81
41624;BME280;27319;50.306;18.926;2022-09-13T02:49:48;98103.75;;;10.63;89.33
41624;BME280;27319;50.306;18.926;2022-09-13T02:59:35;98086.53;;;10.50;88.35
41624;BME280;27319;50.306;18.926;2022-09-13T03:02:37;98086.84;;;10.63;88.30
41624;BME280;27319;50.306;18.926;2022-09-13T03:05:39;98075.72;;;10.66;87.31
41624;BME280;27319;50.306;18.926;2022-09-13T03:08:40;98070.44;;;10.50;87.22
41624;BME280;27319;50.306;18.926;2022-09-13T03:15:30;98082.47;;;10.54;87.87
41624;BME280;27319;50.306;18.926;2022-09-13T03:18:50;98067.75;;;10.42;88.20
41624;BME280;27319;50.306;18.926;2022-09-13T03:35:56;98075.16;;;10.40;89.23
41624;BME280;27319;50.306;18.926;2022-09-13T03:39:10;98084.22;;;10.39;88.83
41624;BME280;27319;50.306;18.926;2022-09-13T03:42:19;98074.16;;;10.25;88.58
41624;BME280;27319;50.306;18.926;2022-09-13T03:45:25;98071.84;;;10.22;88.89
41624;BME280;27319;50.306;18.926;2022-09-13T03:48:28;98064.47;;;9.92;88.21
41624;BME280;27319;50.306;18.926;2022-09-13T03:51:29;98072.84;;;10.13;89.76
41624;BME280;27319;50.306;18.926;2022-09-13T03:54:31;98066.13;;;10.17;88.96
41624;BME280;27319;50.306;18.926;2022-09-13T03:57:32;98070.47;;;10.26;89.22
41624;BME280;27319;50.306;18.926;2022-09-13T04:00:33;98064.59;;;10.31;88.66
41624;BME280;27319;50.306;18.926;2022-09-13T04:03:33;98063.78;;;10.14;87.90
41624;BME280;27319;50.306;18.926;2022-09-13T04:06:34;98059.28;;;10.07;87.77
41624;BME280;27319;50.306;18.926;2022-09-13T04:09:35;98054.06;;;9.89;88.39
41624;BME280;27319;50.306;18.926;2022-09-13T04:12:36;98052.38;;;9.88;88.17
41624;BME280;27319;50.306;18.926;2022-09-13T04:15:38;98043.84;;;9.77;88.16
41624;BME280;27319;50.306;18.926;2022-09-13T04:18:39;98064.66;;;10.07;88.96
41624;BME280;27319;50.306;18.926;2022-09-13T04:21:39;98070.81;;;9.99;88.15
41624;BME280;27319;50.306;18.926;2022-09-13T04:24:41;98055.22;;;9.87;89.32
41624;BME280;27319;50.306;18.926;2022-09-13T04:27:44;98057.59;;;9.90;89.65
41624;BME280;27319;50.306;18.926;2022-09-13T04:30:46;98055.41;;;9.77;89.67
41624;BME280;27319;50.306;18.926;2022-09-13T04:33:48;98053.75;;;9.92;89.96
41624;BME280;27319;50.306;18.926;2022-09-13T04:36:50;98067.66;;;10.04;90.22
41624;BME280;27319;50.306;18.926;2022-09-13T04:39:51;98062.75;;;9.91;90.44
41624;BME280;27319;50.306;18.926;2022-09-13T04:42:53;98075.19;;;9.92;91.21
41624;BME280;27319;50.306;18.926;2022-09-13T04:45:54;98070.47;;;9.78;90.92
41624;BME280;27319;50.306;18.926;2022-09-13T04:48:55;98067.47;;;9.81;90.99
41624;BME280;27319;50.306;18.926;2022-09-13T04:51:55;98067.47;;;9.65;90.86
41624;BME280;27319;50.306;18.926;2022-09-13T04:54:56;98065.09;;;9.86;91.36
41624;BME280;27319;50.306;18.926;2022-09-13T04:58:01;98068.81;;;9.93;90.96
41624;BME280;27319;50.306;18.926;2022-09-13T05:01:03;98060.78;;;9.93;91.49
41624;BME280;27319;50.306;18.926;2022-09-13T05:04:05;98071.16;;;10.12;91.30
41624;BME280;27319;50.306;18.926;2022-09-13T05:07:06;98069.13;;;10.14;90.46
41624;BME280;27319;50.306;18.926;2022-09-13T05:10:07;98068.81;;;10.17;90.88
41624;BME280;27319;50.306;18.926;2022-09-13T05:13:08;98058.41;;;10.14;89.98
41624;BME280;27319;50.306;18.926;2022-09-13T05:16:09;98076.84;;;10.33;90.43
41624;BME280;27319;50.306;18.926;2022-09-13T05:19:11;98062.75;;;10.39;90.04
41624;BME280;27319;50.306;18.926;2022-09-13T05:22:12;98056.03;;;10.35;89.78
41624;BME280;27319;50.306;18.926;2022-09-13T05:25:13;98053.34;;;10.35;90.96
41624;BME280;27319;50.306;18.926;2022-09-13T05:28:14;98048.31;;;10.32;91.29
41624;BME280;27319;50.306;18.926;2022-09-13T05:31:18;98067.44;;;10.45;91.39
41624;BME280;27319;50.306;18.926;2022-09-13T05:34:19;98051.31;;;10.45;93.36
41624;BME280;27319;50.306;18.926;2022-09-13T05:37:20;98057.63;;;10.60;94.04
41624;BME280;27319;50.306;18.926;2022-09-13T05:40:21;98065.47;;;10.69;94.52
41624;BME280;27319;50.306;18.926;2022-09-13T05:43:25;98049.22;;;10.71;96.08
41624;BME280;27319;50.306;18.926;2022-09-13T05:46:27;98053.88;;;10.85;96.32
41624;BME280;27319;50.306;18.926;2022-09-13T05:49:28;98065.16;;;11.11;96.48
41624;BME280;27319;50.306;18.926;2022-09-13T05:52:28;98056.69;;;11.22;96.89
41624;BME280;27319;50.306;18.926;2022-09-13T05:55:29;98069.41;;;11.36;97.76
41624;BME280;27319;50.306;18.926;2022-09-13T05:58:30;98066.03;;;11.34;97.68
41624;BME280;27319;50.306;18.926;2022-09-13T06:01:31;98072.03;;;11.44;97.28
41624;BME280;27319;50.306;18.926;2022-09-13T06:04:32;98068.94;;;11.55;98.21
41624;BME280;27319;50.306;18.926;2022-09-13T06:07:35;98066.06;;;11.56;98.85
41624;BME280;27319;50.306;18.926;2022-09-13T06:10:36;98071.56;;;11.63;98.69
41624;BME280;27319;50.306;18.926;2022-09-13T06:13:38;98056.97;;;11.57;98.46
41624;BME280;27319;50.306;18.926;2022-09-13T06:16:39;98057.97;;;11.64;98.38
41624;BME280;27319;50.306;18.926;2022-09-13T06:19:40;98063.47;;;11.71;98.28
41624;BME280;27319;50.306;18.926;2022-09-13T06:22:41;98062.06;;;11.75;98.52
41624;BME280;27319;50.306;18.926;2022-09-13T06:25:42;98057.38;;;11.77;98.24
41624;BME280;27319;50.306;18.926;2022-09-13T06:28:47;98071.34;;;11.95;97.70
41624;BME280;27319;50.306;18.926;2022-09-13T06:31:48;98069.59;;;12.02;97.92
41624;BME280;27319;50.306;18.926;2022-09-13T06:34:49;98066.72;;;12.03;98.15
41624;BME280;27319;50.306;18.926;2022-09-13T06:37:54;98072.88;;;12.12;97.33
41624;BME280;27319;50.306;18.926;2022-09-13T06:41:04;98062.28;;;12.10;97.83
41624;BME280;27319;50.306;18.926;2022-09-13T06:44:05;98042.81;;;12.08;97.58
41624;BME280;27319;50.306;18.926;2022-09-13T06:47:06;98054.81;;;12.20;97.92
41624;BME280;27319;50.306;18.926;2022-09-13T06:50:07;98061.13;;;12.42;96.34
41624;BME280;27319;50.306;18.926;2022-09-13T06:53:08;98060.78;;;12.45;96.95
41624;BME280;27319;50.306;18.926;2022-09-13T06:56:21;98062.25;;;12.47;97.17
41624;BME280;27319;50.306;18.926;2022-09-13T06:59:23;98059.19;;;12.50;96.86
41624;BME280;27319;50.306;18.926;2022-09-13T07:02:24;98049.91;;;12.53;96.52
41624;BME280;27319;50.306;18.926;2022-09-13T07:05:25;98052.78;;;12.66;96.20
41624;BME280;27319;50.306;18.926;2022-09-13T07:08:26;98056.16;;;12.82;96.60
41624;BME280;27319;50.306;18.926;2022-09-13T07:11:33;98046.66;;;12.86;95.60
41624;BME280;27319;50.306;18.926;2022-09-13T07:14:34;98037.66;;;12.79;95.58
41624;BME280;27319;50.306;18.926;2022-09-13T07:17:35;98045.41;;;12.97;94.94
41624;BME280;27319;50.306;18.926;2022-09-13T07:20:36;98042.31;;;13.00;94.32
41624;BME280;27319;50.306;18.926;2022-09-13T07:23:38;98041.56;;;13.06;94.66
41624;BME280;27319;50.306;18.926;2022-09-13T07:26:39;98053.34;;;13.19;94.34
41624;BME280;27319;50.306;18.926;2022-09-13T07:29:40;98046.09;;;13.20;94.15
41624;BME280;27319;50.306;18.926;2022-09-13T07:32:41;98045.91;;;13.21;94.02
41624;BME280;27319;50.306;18.926;2022-09-13T07:35:42;98051.06;;;13.37;93.91
41624;BME280;27319;50.306;18.926;2022-09-13T07:38:43;98046.53;;;13.38;93.16
41624;BME280;27319;50.306;18.926;2022-09-13T07:41:44;98047.78;;;13.42;93.73
41624;BME280;27319;50.306;18.926;2022-09-13T07:44:46;98042.28;;;13.50;93.98
41624;BME280;27319;50.306;18.926;2022-09-13T07:47:47;98050.00;;;13.53;92.32
41624;BME280;27319;50.306;18.926;2022-09-13T07:50:59;98052.63;;;13.67;92.80
41624;BME280;27319;50.306;18.926;2022-09-13T07:54:03;98051.31;;;13.78;91.52
41624;BME280;27319;50.306;18.926;2022-09-13T07:57:04;98050.91;;;14.02;91.56
41624;BME280;27319;50.306;18.926;2022-09-13T08:00:07;98046.75;;;14.06;90.08
41624;BME280;27319;50.306;18.926;2022-09-13T08:03:10;98035.72;;;14.22;89.56
41624;BME280;27319;50.306;18.926;2022-09-13T08:06:10;98042.00;;;14.29;89.76
41624;BME280;27319;50.306;18.926;2022-09-13T08:09:12;98040.25;;;14.42;88.41
41624;BME280;27319;50.306;18.926;2022-09-13T08:12:13;98045.06;;;14.47;87.51
41624;BME280;27319;50.306;18.926;2022-09-13T08:15:14;98036.81;;;14.55;86.46
41624;BME280;27319;50.306;18.926;2022-09-13T08:18:18;98033.56;;;14.66;86.68
41624;BME280;27319;50.306;18.926;2022-09-13T08:21:20;98031.34;;;14.76;84.79
41624;BME280;27319;50.306;18.926;2022-09-13T08:24:21;98038.16;;;14.72;84.81
41624;BME280;27319;50.306;18.926;2022-09-13T08:27:22;98032.03;;;14.91;83.72
41624;BME280;27319;50.306;18.926;2022-09-13T08:30:23;98024.16;;;14.96;83.73
41624;BME280;27319;50.306;18.926;2022-09-13T08:33:24;98013.00;;;15.12;83.57
41624;BME280;27319;50.306;18.926;2022-09-13T08:36:26;98013.25;;;15.23;82.75
41624;BME280;27319;50.306;18.926;2022-09-13T08:39:27;98017.28;;;15.34;82.27
41624;BME280;27319;50.306;18.926;2022-09-13T08:46:17;98011.47;;;15.43;82.31
41624;BME280;27319;50.306;18.926;2022-09-13T08:49:30;98010.03;;;15.54;81.32
41624;BME280;27319;50.306;18.926;2022-09-13T08:52:44;98009.44;;;15.65;79.33
41624;BME280;27319;50.306;18.926;2022-09-13T09:05:48;98017.38;;;15.92;80.05
41624;BME280;27319;50.306;18.926;2022-09-13T09:08:57;98004.91;;;15.98;79.02
41624;BME280;27319;50.306;18.926;2022-09-13T09:15:15;97998.66;;;16.23;78.07
41624;BME280;27319;50.306;18.926;2022-09-13T09:18:27;97999.94;;;16.40;78.67
41624;BME280;27319;50.306;18.926;2022-09-13T09:21:29;98004.06;;;16.49;76.43
41624;BME280;27319;50.306;18.926;2022-09-13T09:24:33;97997.78;;;16.68;75.85
41624;BME280;27319;50.306;18.926;2022-09-13T09:27:36;97999.41;;;16.89;75.68
41624;BME280;27319;50.306;18.926;2022-09-13T09:31:02;98000.59;;;16.99;74.00
41624;BME280;27319;50.306;18.926;2022-09-13T09:34:10;98012.50;;;16.92;74.69
41624;BME280;27319;50.306;18.926;2022-09-13T09:40:18;97997.28;;;16.97;75.19
41624;BME280;27319;50.306;18.926;2022-09-13T09:43:28;97987.84;;;17.06;73.65
41624;BME280;27319;50.306;18.926;2022-09-13T09:46:37;97992.78;;;17.29;72.84
41624;BME280;27319;50.306;18.926;2022-09-13T09:53:13;97982.75;;;17.67;72.30
41624;BME280;27319;50.306;18.926;2022-09-13T09:56:24;97978.25;;;17.54;70.55
41624;BME280;27319;50.306;18.926;2022-09-13T09:59:28;97974.97;;;17.46;71.55
41624;BME280;27319;50.306;18.926;2022-09-13T10:02:31;97973.34;;;17.32;71.63
41624;BME280;27319;50.306;18.926;2022-09-13T10:05:33;97977.00;;;17.57;72.50
41624;BME280;27319;50.306;18.926;2022-09-13T10:08:36;97974.00;;;17.65;70.67
41624;BME280;27319;50.306;18.926;2022-09-13T10:11:47;97974.44;;;17.62;71.37
41624;BME280;27319;50.306;18.926;2022-09-13T10:14:49;97967.22;;;17.80;71.13
41624;BME280;27319;50.306;18.926;2022-09-13T10:21:22;97956.78;;;18.02;69.38
41624;BME280;27319;50.306;18.926;2022-09-13T10:24:24;97968.78;;;18.19;69.78
41624;BME280;27319;50.306;18.926;2022-09-13T10:27:37;97957.81;;;18.07;69.48
41624;BME280;27319;50.306;18.926;2022-09-13T10:30:57;97952.59;;;18.06;71.04
41624;BME280;27319;50.306;18.926;2022-09-13T10:34:02;97947.66;;;18.21;68.39
41624;BME280;27319;50.306;18.926;2022-09-13T10:37:23;97948.06;;;18.67;68.40
41624;BME280;27319;50.306;18.926;2022-09-13T10:43:28;97944.41;;;19.09;63.80
41624;BME280;27319;50.306;18.926;2022-09-13T10:46:32;97938.38;;;19.07;65.27
41624;BME280;27319;50.306;18.926;2022-09-13T10:49:41;97939.59;;;19.40;65.51
41624;BME280;27319;50.306;18.926;2022-09-13T10:52:49;97937.47;;;19.72;64.46
41624;BME280;27319;50.306;18.926;2022-09-13T10:55:53;97926.41;;;20.08;60.93
41624;BME280;27319;50.306;18.926;2022-09-13T11:06:35;97919.31;;;20.30;61.24
41624;BME280;27319;50.306;18.926;2022-09-13T11:09:51;97916.03;;;20.28;62.08
41624;BME280;27319;50.306;18.926;2022-09-13T11:13:34;97918.81;;;20.56;61.01
41624;BME280;27319;50.306;18.926;2022-09-13T11:23:52;97911.53;;;20.96;58.03
41624;BME280;27319;50.306;18.926;2022-09-13T11:30:21;97885.66;;;21.82;57.99
41624;BME280;27319;50.306;18.926;2022-09-13T11:36:48;97875.44;;;22.44;53.00
41624;BME280;27319;50.306;18.926;2022-09-13T11:40:08;97856.09;;;21.96;54.99
41624;BME280;27319;50.306;18.926;2022-09-13T11:46:52;97857.00;;;20.84;51.68
41624;BME280;27319;50.306;18.926;2022-09-13T11:56:43;97859.44;;;20.58;56.69
41624;BME280;27319;50.306;18.926;2022-09-13T12:00:02;97842.88;;;20.25;58.60
41624;BME280;27319;50.306;18.926;2022-09-13T12:06:25;97828.03;;;19.75;60.62
41624;BME280;27319;50.306;18.926;2022-09-13T12:09:35;97819.78;;;19.70;60.56
41624;BME280;27319;50.306;18.926;2022-09-13T12:12:38;97826.13;;;19.64;61.23
41624;BME280;27319;50.306;18.926;2022-09-13T12:15:41;97815.97;;;19.59;62.76
41624;BME280;27319;50.306;18.926;2022-09-13T12:18:50;97827.97;;;19.29;63.46
41624;BME280;27319;50.306;18.926;2022-09-13T12:21:54;97824.84;;;19.14;62.94
41624;BME280;27319;50.306;18.926;2022-09-13T12:24:58;97827.25;;;19.22;62.63
41624;BME280;27319;50.306;18.926;2022-09-13T12:28:18;97811.13;;;19.20;62.26
41624;BME280;27319;50.306;18.926;2022-09-13T12:31:25;97805.19;;;19.12;63.51
41624;BME280;27319;50.306;18.926;2022-09-13T12:34:48;97795.63;;;19.09;62.76
41624;BME280;27319;50.306;18.926;2022-09-13T12:44:35;97804.81;;;19.08;64.67
41624;BME280;27319;50.306;18.926;2022-09-13T12:51:13;97791.13;;;19.15;64.28
41624;BME280;27319;50.306;18.926;2022-09-13T12:58:03;97788.16;;;19.57;61.02
41624;BME280;27319;50.306;18.926;2022-09-13T13:01:14;97788.66;;;20.12;63.65
41624;BME280;27319;50.306;18.926;2022-09-13T13:04:28;97785.78;;;20.18;62.19
41624;BME280;27319;50.306;18.926;2022-09-13T13:07:33;97776.66;;;20.01;62.95
41624;BME280;27319;50.306;18.926;2022-09-13T13:10:36;97781.03;;;19.91;62.32
41624;BME280;27319;50.306;18.926;2022-09-13T13:13:43;97774.41;;;19.75;63.35
41624;BME280;27319;50.306;18.926;2022-09-13T13:16:44;97777.75;;;19.89;65.19
41624;BME280;27319;50.306;18.926;2022-09-13T13:19:47;97776.06;;;19.76;63.79
41624;BME280;27319;50.306;18.926;2022-09-13T13:22:50;97769.09;;;19.80;63.75
41624;BME280;27319;50.306;18.926;2022-09-13T13:26:07;97769.22;;;19.85;63.54
41624;BME280;27319;50.306;18.926;2022-09-13T13:32:17;97764.94;;;20.01;64.55
41624;BME280;27319;50.306;18.926;2022-09-13T13:35:29;97768.13;;;19.98;65.66
41624;BME280;27319;50.306;18.926;2022-09-13T13:38:46;97768.50;;;19.78;64.90
41624;BME280;27319;50.306;18.926;2022-09-13T13:41:57;97760.78;;;19.64;65.44
41624;BME280;27319;50.306;18.926;2022-09-13T13:45:05;97755.72;;;19.67;65.32
41624;BME280;27319;50.306;18.926;2022-09-13T13:48:10;97748.25;;;19.63;66.01
41624;BME280;27319;50.306;18.926;2022-09-13T13:51:19;97758.56;;;19.61;66.16
41624;BME280;27319;50.306;18.926;2022-09-13T13:54:29;97749.44;;;19.67;66.12
41624;BME280;27319;50.306;18.926;2022-09-13T13:57:36;97740.31;;;19.73;65.54
41624;BME280;27319;50.306;18.926;2022-09-13T14:00:49;97733.09;;;19.67;65.01
41624;BME280;27319;50.306;18.926;2022-09-13T14:11:36;97715.47;;;19.69;66.00
41624;BME280;27319;50.306;18.926;2022-09-13T14:15:36;97712.88;;;19.74;67.04
41624;BME280;27319;50.306;18.926;2022-09-13T14:18:44;97710.44;;;19.89;64.30
41624;BME280;27319;50.306;18.926;2022-09-13T14:28:20;97725.72;;;20.02;62.99
41624;BME280;27319;50.306;18.926;2022-09-13T14:31:22;97726.44;;;19.86;63.20
41624;BME280;27319;50.306;18.926;2022-09-13T14:34:33;97721.84;;;20.09;64.12
41624;BME280;27319;50.306;18.926;2022-09-13T14:37:36;97710.91;;;19.98;61.86
41624;BME280;27319;50.306;18.926;2022-09-13T14:40:38;97714.75;;;19.85;63.69
41624;BME280;27319;50.306;18.926;2022-09-13T14:43:39;97707.06;;;19.71;63.78
41624;BME280;27319;50.306;18.926;2022-09-13T14:46:43;97707.56;;;19.56;64.63
41624;BME280;27319;50.306;18.926;2022-09-13T14:49:52;97701.97;;;19.40;65.14
41624;BME280;27319;50.306;18.926;2022-09-13T14:52:58;97700.19;;;19.34;64.78
41624;BME280;27319;50.306;18.926;2022-09-13T14:56:12;97693.09;;;19.33;65.56
41624;BME280;27319;50.306;18.926;2022-09-13T14:59:47;97689.31;;;19.34;65.77
41624;BME280;27319;50.306;18.926;2022-09-13T15:02:52;97683.38;;;19.14;65.84
41624;BME280;27319;50.306;18.926;2022-09-13T15:05:59;97678.25;;;19.06;66.44
41624;BME280;27319;50.306;18.926;2022-09-13T15:12:26;97673.44;;;19.08;65.34
41624;BME280;27319;50.306;18.926;2022-09-13T15:18:32;97676.06;;;19.26;66.53
41624;BME280;27319;50.306;18.926;2022-09-13T15:21:34;97659.75;;;19.26;66.65
41624;BME280;27319;50.306;18.926;2022-09-13T15:24:36;97661.28;;;19.33;65.43
41624;BME280;27319;50.306;18.926;2022-09-13T15:27:43;97652.72;;;19.18;66.06
41624;BME280;27319;50.306;18.926;2022-09-13T15:30:44;97660.75;;;19.13;65.95
41624;BME280;27319;50.306;18.926;2022-09-13T15:33:45;97653.56;;;19.19;65.99
41624;BME280;27319;50.306;18.926;2022-09-13T15:36:48;97657.81;;;19.15;66.60
41624;BME280;27319;50.306;18.926;2022-09-13T15:40:16;97652.50;;;19.20;66.83
41624;BME280;27319;50.306;18.926;2022-09-13T15:43:18;97653.78;;;19.17;66.17
41624;BME280;27319;50.306;18.926;2022-09-13T15:46:19;97659.69;;;19.03;67.20
41624;BME280;27319;50.306;18.926;2022-09-13T15:49:26;97662.41;;;19.03;66.56
41624;BME280;27319;50.306;18.926;2022-09-13T15:52:27;97667.47;;;18.88;67.15
41624;BME280;27319;50.306;18.926;2022-09-13T15:55:29;97665.59;;;18.88;67.43
41624;BME280;27319;50.306;18.926;2022-09-13T15:58:30;97664.25;;;18.79;67.80
41624;BME280;27319;50.306;18.926;2022-09-13T16:01:31;97663.91;;;18.76;68.17
41624;BME280;27319;50.306;18.926;2022-09-13T16:04:32;97666.03;;;18.74;68.59
41624;BME280;27319;50.306;18.926;2022-09-13T16:07:33;97662.72;;;18.72;69.29
41624;BME280;27319;50.306;18.926;2022-09-13T16:10:34;97660.97;;;18.77;69.00
41624;BME280;27319;50.306;18.926;2022-09-13T16:13:35;97659.88;;;18.67;69.97
41624;BME280;27319;50.306;18.926;2022-09-13T16:16:38;97652.53;;;18.67;68.52
41624;BME280;27319;50.306;18.926;2022-09-13T16:19:40;97653.13;;;18.58;69.70
41624;BME280;27319;50.306;18.926;2022-09-13T16:22:41;97650.88;;;18.55;69.40
41624;BME280;27319;50.306;18.926;2022-09-13T16:25:43;97637.97;;;18.50;70.74
41624;BME280;27319;50.306;18.926;2022-09-13T16:28:43;97646.34;;;18.49;71.10
41624;BME280;27319;50.306;18.926;2022-09-13T16:31:45;97651.91;;;18.42;70.59
41624;BME280;27319;50.306;18.926;2022-09-13T16:34:45;97647.03;;;18.33;71.78
41624;BME280;27319;50.306;18.926;2022-09-13T16:37:47;97650.16;;;18.30;72.12
41624;BME280;27319;50.306;18.926;2022-09-13T16:40:51;97654.84;;;18.23;71.09
41624;BME280;27319;50.306;18.926;2022-09-13T16:43:53;97648.59;;;18.22;72.33
41624;BME280;27319;50.306;18.926;2022-09-13T16:46:54;97652.00;;;18.18;72.10
41624;BME280;27319;50.306;18.926;2022-09-13T16:49:55;97658.94;;;18.14;72.42
41624;BME280;27319;50.306;18.926;2022-09-13T16:52:56;97655.72;;;18.05;73.53
41624;BME280;27319;50.306;18.926;2022-09-13T16:56:05;97650.03;;;17.95;73.27
41624;BME280;27319;50.306;18.926;2022-09-13T16:59:06;97642.09;;;17.94;74.10
41624;BME280;27319;50.306;18.926;2022-09-13T17:02:10;97643.81;;;17.88;74.87
41624;BME280;27319;50.306;18.926;2022-09-13T17:05:11;97646.63;;;17.82;74.52
41624;BME280;27319;50.306;18.926;2022-09-13T17:08:12;97639.78;;;17.79;75.57
41624;BME280;27319;50.306;18.926;2022-09-13T17:11:15;97640.22;;;17.76;75.02
41624;BME280;27319;50.306;18.926;2022-09-13T17:14:17;97631.97;;;17.71;76.59
41624;BME280;27319;50.306;18.926;2022-09-13T17:17:18;97630.13;;;17.65;76.25
41624;BME280;27319;50.306;18.926;2022-09-13T17:20:20;97626.06;;;17.56;77.25
41624;BME280;27319;50.306;18.926;2022-09-13T17:23:20;97627.19;;;17.49;77.26
41624;BME280;27319;50.306;18.926;2022-09-13T17:26:22;97628.13;;;17.36;75.93
41624;BME280;27319;50.306;18.926;2022-09-13T17:29:23;97631.69;;;17.37;76.87
41624;BME280;27319;50.306;18.926;2022-09-13T17:32:30;97623.84;;;17.29;77.79
41624;BME280;27319;50.306;18.926;2022-09-13T17:35:31;97635.81;;;17.21;77.50
41624;BME280;27319;50.306;18.926;2022-09-13T17:38:36;97631.09;;;17.17;77.92
41624;BME280;27319;50.306;18.926;2022-09-13T17:41:37;97623.84;;;17.11;77.25
41624;BME280;27319;50.306;18.926;2022-09-13T17:44:38;97622.16;;;17.10;77.07
41624;BME280;27319;50.306;18.926;2022-09-13T17:47:39;97627.59;;;17.10;77.92
41624;BME280;27319;50.306;18.926;2022-09-13T17:50:41;97619.44;;;17.10;77.54
41624;BME280;27319;50.306;18.926;2022-09-13T17:53:44;97622.63;;;17.07;78.12
41624;BME280;27319;50.306;18.926;2022-09-13T17:56:45;97624.31;;;17.01;77.71
41624;BME280;27319;50.306;18.926;2022-09-13T17:59:46;97618.00;;;17.07;77.35
41624;BME280;27319;50.306;18.926;2022-09-13T18:02:47;97617.03;;;17.02;77.67
41624;BME280;27319;50.306;18.926;2022-09-13T18:05:54;97609.34;;;16.99;77.49
41624;BME280;27319;50.306;18.926;2022-09-13T18:08:57;97617.41;;;17.05;76.15
41624;BME280;27319;50.306;18.926;2022-09-13T18:11:58;97623.13;;;16.97;76.69
41624;BME280;27319;50.306;18.926;2022-09-13T18:14:59;97621.06;;;16.93;77.12
41624;BME280;27319;50.306;18.926;2022-09-13T18:18:01;97621.97;;;16.87;77.98
41624;BME280;27319;50.306;18.926;2022-09-13T18:21:04;97618.66;;;16.85;76.67
41624;BME280;27319;50.306;18.926;2022-09-13T18:24:05;97617.59;;;16.86;77.65
41624;BME280;27319;50.306;18.926;2022-09-13T18:27:07;97619.03;;;16.88;77.31
41624;BME280;27319;50.306;18.926;2022-09-13T18:30:10;97613.84;;;16.87;77.74
41624;BME280;27319;50.306;18.926;2022-09-13T18:33:12;97614.47;;;16.89;78.22
41624;BME280;27319;50.306;18.926;2022-09-13T18:36:15;97617.97;;;16.89;76.85
41624;BME280;27319;50.306;18.926;2022-09-13T18:39:21;97614.47;;;16.89;77.81
41624;BME280;27319;50.306;18.926;2022-09-13T18:42:21;97616.13;;;16.90;77.40